sensor_id;sensor_type;location;lat;lon;timestamp;P1;durP1;ratioP1;P2;durP2;ratioP2
22017;SDS011;11173;51.050;7.108;2024-03-08T00:08:22;18.15;;;14.45;;
22017;SDS011;11173;51.050;7.108;2024-03-08T00:18:22;20.13;;;14.55;;
22017;SDS011;11173;51.050;7.108;2024-03-08T00:28:22;19.08;;;13.38;;
22017;SDS011;11173;51.050;7.108;2024-03-08T00:38:25;18.40;;;15.00;;
22017;SDS011;11173;51.050;7.108;2024-03-08T00:48:25;17.80;;;14.68;;
22017;SDS011;11173;51.050;7.108;2024-03-08T00:58:25;23.25;;;17.00;;
22017;SDS011;11173;51.050;7.108;2024-03-08T01:08:25;20.02;;;15.18;;
22017;SDS011;11173;51.050;7.108;2024-03-08T01:18:26;21.83;;;16.98;;
22017;SDS011;11173;51.050;7.108;2024-03-08T01:28:26;21.13;;;15.98;;
22017;SDS011;11173;51.050;7.108;2024-03-08T01:38:29;21.02;;;16.08;;
22017;SDS011;11173;51.050;7.108;2024-03-08T01:48:30;22.65;;;16.77;;
22017;SDS011;11173;51.050;7.108;2024-03-08T01:58:30;22.40;;;17.42;;
22017;SDS011;11173;51.050;7.108;2024-03-08T02:08:30;22.75;;;16.63;;
22017;SDS011;11173;51.050;7.108;2024-03-08T02:18:31;22.08;;;17.67;;
22017;SDS011;11173;51.050;7.108;2024-03-08T02:28:34;29.60;;;18.98;;
22017;SDS011;11173;51.050;7.108;2024-03-08T02:38:34;21.77;;;16.27;;
22017;SDS011;11173;51.050;7.108;2024-03-08T02:48:35;21.45;;;16.67;;
22017;SDS011;11173;51.050;7.108;2024-03-08T02:58:35;29.15;;;20.02;;
22017;SDS011;11173;51.050;7.108;2024-03-08T03:08:35;23.42;;;16.90;;
22017;SDS011;11173;51.050;7.108;2024-03-08T03:18:36;21.92;;;16.48;;
22017;SDS011;11173;51.050;7.108;2024-03-08T03:28:36;25.95;;;18.73;;
22017;SDS011;11173;51.050;7.108;2024-03-08T03:38:39;21.67;;;15.75;;
22017;SDS011;11173;51.050;7.108;2024-03-08T03:48:39;22.55;;;16.60;;
22017;SDS011;11173;51.050;7.108;2024-03-08T03:58:39;25.27;;;17.98;;
22017;SDS011;11173;51.050;7.108;2024-03-08T04:08:40;24.05;;;17.17;;
22017;SDS011;11173;51.050;7.108;2024-03-08T04:18:41;25.88;;;17.27;;
22017;SDS011;11173;51.050;7.108;2024-03-08T04:28:41;22.35;;;16.60;;
22017;SDS011;11173;51.050;7.108;2024-03-08T04:38:41;25.55;;;17.85;;
22017;SDS011;11173;51.050;7.108;2024-03-08T04:48:41;23.17;;;17.42;;
22017;SDS011;11173;51.050;7.108;2024-03-08T04:58:43;23.50;;;17.02;;
22017;SDS011;11173;51.050;7.108;2024-03-08T05:08:43;25.52;;;17.75;;
22017;SDS011;11173;51.050;7.108;2024-03-08T05:18:43;27.67;;;18.25;;
22017;SDS011;11173;51.050;7.108;2024-03-08T05:28:44;25.52;;;18.55;;
22017;SDS011;11173;51.050;7.108;2024-03-08T05:38:44;26.35;;;18.48;;
22017;SDS011;11173;51.050;7.108;2024-03-08T05:48:44;22.02;;;17.17;;
22017;SDS011;11173;51.050;7.108;2024-03-08T05:58:45;26.20;;;17.17;;
22017;SDS011;11173;51.050;7.108;2024-03-08T06:08:45;23.35;;;17.88;;
22017;SDS011;11173;51.050;7.108;2024-03-08T06:18:47;24.27;;;18.40;;
22017;SDS011;11173;51.050;7.108;2024-03-08T06:28:48;26.38;;;19.02;;
22017;SDS011;11173;51.050;7.108;2024-03-08T06:38:48;29.67;;;20.48;;
22017;SDS011;11173;51.050;7.108;2024-03-08T06:48:48;23.83;;;17.65;;
22017;SDS011;11173;51.050;7.108;2024-03-08T06:58:49;25.83;;;18.25;;
22017;SDS011;11173;51.050;7.108;2024-03-08T07:08:49;22.38;;;16.35;;
22017;SDS011;11173;51.050;7.108;2024-03-08T07:18:49;25.90;;;18.70;;
22017;SDS011;11173;51.050;7.108;2024-03-08T07:28:52;28.00;;;19.13;;
22017;SDS011;11173;51.050;7.108;2024-03-08T07:38:55;24.92;;;17.95;;
22017;SDS011;11173;51.050;7.108;2024-03-08T07:48:55;21.85;;;16.20;;
22017;SDS011;11173;51.050;7.108;2024-03-08T07:58:56;22.92;;;17.52;;
22017;SDS011;11173;51.050;7.108;2024-03-08T08:08:56;20.58;;;15.68;;
22017;SDS011;11173;51.050;7.108;2024-03-08T08:18:56;22.55;;;17.40;;
22017;SDS011;11173;51.050;7.108;2024-03-08T08:28:56;19.60;;;14.60;;
22017;SDS011;11173;51.050;7.108;2024-03-08T08:38:57;19.38;;;13.57;;
22017;SDS011;11173;51.050;7.108;2024-03-08T08:48:58;19.55;;;14.25;;
22017;SDS011;11173;51.050;7.108;2024-03-08T08:58:59;19.42;;;14.52;;
22017;SDS011;11173;51.050;7.108;2024-03-08T09:08:59;18.88;;;15.20;;
22017;SDS011;11173;51.050;7.108;2024-03-08T09:18:59;18.75;;;14.57;;
22017;SDS011;11173;51.050;7.108;2024-03-08T09:28:59;15.02;;;11.98;;
22017;SDS011;11173;51.050;7.108;2024-03-08T09:39:00;18.75;;;13.98;;
22017;SDS011;11173;51.050;7.108;2024-03-08T09:49:00;13.80;;;11.57;;
22017;SDS011;11173;51.050;7.108;2024-03-08T09:59:02;14.57;;;11.85;;
22017;SDS011;11173;51.050;7.108;2024-03-08T10:19:12;12.10;;;9.80;;
22017;SDS011;11173;51.050;7.108;2024-03-08T10:29:13;12.25;;;10.38;;
22017;SDS011;11173;51.050;7.108;2024-03-08T10:39:22;8.85;;;7.78;;
22017;SDS011;11173;51.050;7.108;2024-03-08T10:49:25;10.90;;;9.43;;
22017;SDS011;11173;51.050;7.108;2024-03-08T10:59:25;8.15;;;7.03;;
22017;SDS011;11173;51.050;7.108;2024-03-08T11:09:35;9.50;;;8.48;;
22017;SDS011;11173;51.050;7.108;2024-03-08T11:19:35;10.10;;;7.90;;
22017;SDS011;11173;51.050;7.108;2024-03-08T11:29:36;8.68;;;7.63;;
22017;SDS011;11173;51.050;7.108;2024-03-08T11:39:38;9.52;;;7.38;;
22017;SDS011;11173;51.050;7.108;2024-03-08T11:49:39;8.52;;;7.63;;
22017;SDS011;11173;51.050;7.108;2024-03-08T11:59:50;10.18;;;7.95;;
22017;SDS011;11173;51.050;7.108;2024-03-08T12:10:24;10.10;;;7.68;;
22017;SDS011;11173;51.050;7.108;2024-03-08T12:30:26;7.72;;;6.85;;
22017;SDS011;11173;51.050;7.108;2024-03-08T12:40:30;8.63;;;7.28;;
22017;SDS011;11173;51.050;7.108;2024-03-08T12:50:31;10.77;;;8.10;;
22017;SDS011;11173;51.050;7.108;2024-03-08T13:00:31;7.10;;;6.40;;
22017;SDS011;11173;51.050;7.108;2024-03-08T13:10:32;9.80;;;7.78;;
22017;SDS011;11173;51.050;7.108;2024-03-08T13:20:32;9.23;;;7.55;;
22017;SDS011;11173;51.050;7.108;2024-03-08T13:30:33;6.07;;;5.43;;
22017;SDS011;11173;51.050;7.108;2024-03-08T13:40:33;8.88;;;7.35;;
22017;SDS011;11173;51.050;7.108;2024-03-08T13:50:33;11.57;;;9.52;;
22017;SDS011;11173;51.050;7.108;2024-03-08T14:00:35;9.30;;;7.63;;
22017;SDS011;11173;51.050;7.108;2024-03-08T14:10:36;9.50;;;7.70;;
22017;SDS011;11173;51.050;7.108;2024-03-08T14:20:39;6.10;;;5.50;;
22017;SDS011;11173;51.050;7.108;2024-03-08T14:30:39;11.23;;;8.70;;
22017;SDS011;11173;51.050;7.108;2024-03-08T14:40:41;9.57;;;8.52;;
22017;SDS011;11173;51.050;7.108;2024-03-08T14:50:45;9.65;;;7.30;;
22017;SDS011;11173;51.050;7.108;2024-03-08T15:00:47;14.48;;;9.38;;
22017;SDS011;11173;51.050;7.108;2024-03-08T15:10:47;9.77;;;8.00;;
22017;SDS011;11173;51.050;7.108;2024-03-08T15:20:53;9.43;;;7.55;;
22017;SDS011;11173;51.050;7.108;2024-03-08T15:30:55;8.00;;;7.18;;
22017;SDS011;11173;51.050;7.108;2024-03-08T15:41:04;8.90;;;7.38;;
22017;SDS011;11173;51.050;7.108;2024-03-08T15:51:09;10.00;;;8.00;;
22017;SDS011;11173;51.050;7.108;2024-03-08T16:01:10;7.97;;;6.78;;
22017;SDS011;11173;51.050;7.108;2024-03-08T16:11:13;8.90;;;7.82;;
22017;SDS011;11173;51.050;7.108;2024-03-08T16:21:14;9.75;;;6.95;;
22017;SDS011;11173;51.050;7.108;2024-03-08T16:31:14;6.25;;;5.50;;
22017;SDS011;11173;51.050;7.108;2024-03-08T16:41:14;7.63;;;5.85;;
22017;SDS011;11173;51.050;7.108;2024-03-08T16:51:15;5.22;;;4.72;;
22017;SDS011;11173;51.050;7.108;2024-03-08T17:01:15;4.40;;;3.95;;
22017;SDS011;11173;51.050;7.108;2024-03-08T17:11:16;3.63;;;3.25;;
22017;SDS011;11173;51.050;7.108;2024-03-08T17:21:16;2.80;;;2.60;;
22017;SDS011;11173;51.050;7.108;2024-03-08T17:31:17;4.00;;;3.60;;
22017;SDS011;11173;51.050;7.108;2024-03-08T17:41:17;4.88;;;4.38;;
22017;SDS011;11173;51.050;7.108;2024-03-08T17:51:22;7.82;;;5.85;;
22017;SDS011;11173;51.050;7.108;2024-03-08T18:01:22;10.02;;;8.25;;
22017;SDS011;11173;51.050;7.108;2024-03-08T18:11:23;10.52;;;7.93;;
22017;SDS011;11173;51.050;7.108;2024-03-08T18:21:24;10.55;;;8.77;;
22017;SDS011;11173;51.050;7.108;2024-03-08T18:31:24;9.30;;;7.47;;
22017;SDS011;11173;51.050;7.108;2024-03-08T18:41:25;10.30;;;8.57;;
22017;SDS011;11173;51.050;7.108;2024-03-08T18:51:28;8.70;;;7.55;;
22017;SDS011;11173;51.050;7.108;2024-03-08T19:01:30;9.27;;;7.05;;
22017;SDS011;11173;51.050;7.108;2024-03-08T19:11:35;12.13;;;8.70;;
22017;SDS011;11173;51.050;7.108;2024-03-08T19:21:36;9.63;;;7.90;;
22017;SDS011;11173;51.050;7.108;2024-03-08T19:31:36;16.33;;;10.30;;
22017;SDS011;11173;51.050;7.108;2024-03-08T19:41:37;13.10;;;10.13;;
22017;SDS011;11173;51.050;7.108;2024-03-08T19:51:37;12.90;;;10.05;;
22017;SDS011;11173;51.050;7.108;2024-03-08T20:01:37;15.27;;;9.80;;
22017;SDS011;11173;51.050;7.108;2024-03-08T20:11:38;16.67;;;11.18;;
22017;SDS011;11173;51.050;7.108;2024-03-08T20:21:47;16.77;;;11.65;;
22017;SDS011;11173;51.050;7.108;2024-03-08T20:31:47;16.00;;;11.93;;
22017;SDS011;11173;51.050;7.108;2024-03-08T20:41:48;15.40;;;11.45;;
22017;SDS011;11173;51.050;7.108;2024-03-08T20:51:49;14.25;;;9.85;;
22017;SDS011;11173;51.050;7.108;2024-03-08T21:01:49;16.08;;;11.05;;
22017;SDS011;11173;51.050;7.108;2024-03-08T21:11:52;15.80;;;11.70;;
22017;SDS011;11173;51.050;7.108;2024-03-08T21:21:52;14.48;;;10.55;;
22017;SDS011;11173;51.050;7.108;2024-03-08T21:31:54;13.02;;;9.68;;
22017;SDS011;11173;51.050;7.108;2024-03-08T21:41:54;15.18;;;11.23;;
22017;SDS011;11173;51.050;7.108;2024-03-08T21:51:55;12.85;;;9.23;;
22017;SDS011;11173;51.050;7.108;2024-03-08T22:01:55;16.48;;;10.68;;
22017;SDS011;11173;51.050;7.108;2024-03-08T22:11:55;16.08;;;10.15;;
22017;SDS011;11173;51.050;7.108;2024-03-08T22:21:55;14.60;;;10.32;;
22017;SDS011;11173;51.050;7.108;2024-03-08T22:31:56;13.60;;;8.65;;
22017;SDS011;11173;51.050;7.108;2024-03-08T22:41:56;14.23;;;10.60;;
22017;SDS011;11173;51.050;7.108;2024-03-08T22:51:56;14.38;;;10.38;;
22017;SDS011;11173;51.050;7.108;2024-03-08T23:01:57;15.50;;;10.65;;
22017;SDS011;11173;51.050;7.108;2024-03-08T23:11:58;12.18;;;9.32;;
22017;SDS011;11173;51.050;7.108;2024-03-08T23:21:58;11.90;;;9.15;;
22017;SDS011;11173;51.050;7.108;2024-03-08T23:32:01;13.32;;;10.25;;
22017;SDS011;11173;51.050;7.108;2024-03-08T23:42:02;12.52;;;9.70;;
22017;SDS011;11173;51.050;7.108;2024-03-08T23:52:04;13.82;;;10.10;;
